Time;durP1;ratioP1;P1;durP2;ratioP2;P2;SDS_P1;SDS_P2;PMS_P1;PMS_P2;Temp;Humidity;BMP_temperature;BMP_pressure;BME280_temperature;BME280_humidity;BME280_pressure;Samples;Min_cycle;Max_cycle;Signal;HPM_P1;HPM_P2
2021/09/22 00:02:13;;;;;;;13.00;9.30;;;17.70;47.90;;;;;;5058985;28;20460;-92
2021/09/22 00:04:40;;;;;;;12.70;9.90;;;17.40;47.00;;;;;;5058157;28;20493;-90
2021/09/22 00:07:07;;;;;;;15.73;11.50;;;17.60;48.40;;;;;;5057756;28;20472;-91
2021/09/22 00:09:34;;;;;;;14.43;9.50;;;17.70;49.10;;;;;;5059161;28;20472;-91
2021/09/22 00:12:02;;;;;;;13.60;10.40;;;17.60;49.30;;;;;;5059420;28;20497;-91
2021/09/22 00:14:29;;;;;;;12.20;9.23;;;17.70;49.50;;;;;;5059078;28;20759;-91
2021/09/22 00:16:56;;;;;;;14.90;10.10;;;17.80;48.80;;;;;;5059311;28;20444;-90
2021/09/22 00:19:23;;;;;;;13.77;10.23;;;17.90;48.20;;;;;;5060200;28;20476;-91
2021/09/22 00:21:50;;;;;;;21.60;11.10;;;17.90;47.20;;;;;;5059957;28;20452;-91
2021/09/22 00:24:17;;;;;;;12.60;9.90;;;17.90;48.00;;;;;;5060276;28;20767;-91
2021/09/22 00:26:44;;;;;;;14.77;10.80;;;17.90;46.60;;;;;;5059662;28;20480;-91
2021/09/22 00:29:12;;;;;;;14.40;9.90;;;17.80;49.00;;;;;;5059408;28;20475;-91
2021/09/22 00:31:39;;;;;;;24.00;10.10;;;17.80;49.10;;;;;;5058594;28;20794;-91
2021/09/22 00:34:07;;;;;;;13.47;10.20;;;17.70;47.10;;;;;;5059431;28;20451;-90
2021/09/22 00:36:34;;;;;;;16.80;11.43;;;17.80;48.70;;;;;;5058428;28;20830;-91
2021/09/22 00:39:01;;;;;;;12.40;8.97;;;17.60;44.60;;;;;;5059726;28;20452;-90
2021/09/22 00:41:28;;;;;;;11.80;9.90;;;17.70;47.40;;;;;;5056147;28;20815;-91
2021/09/22 00:43:55;;;;;;;13.20;9.93;;;17.60;48.80;;;;;;5057687;28;20497;-91
2021/09/22 00:46:24;;;;;;;11.50;9.30;;;17.80;49.50;;;;;;5058191;28;20475;-91
2021/09/22 00:48:51;;;;;;;11.87;9.10;;;17.80;49.40;;;;;;5058182;28;20478;-91
2021/09/22 00:51:18;;;;;;;14.60;10.57;;;18.00;49.10;;;;;;5058583;28;20468;-91
2021/09/22 00:53:45;;;;;;;13.90;10.03;;;17.90;46.10;;;;;;5057471;28;20447;-91
2021/09/22 00:56:12;;;;;;;13.53;9.33;;;17.60;46.80;;;;;;5059498;28;20510;-91
2021/09/22 00:58:39;;;;;;;12.50;9.47;;;17.60;49.60;;;;;;5059387;28;20460;-91
2021/09/22 01:01:06;;;;;;;13.30;9.80;;;17.80;49.60;;;;;;5058045;28;20857;-91
2021/09/22 01:03:34;;;;;;;13.03;9.63;;;18.00;49.00;;;;;;5061228;28;20417;-90
2021/09/22 01:06:01;;;;;;;17.40;11.43;;;18.00;49.00;;;;;;5074449;28;20521;-89
2021/09/22 01:08:29;;;;;;;21.57;11.70;;;18.10;49.10;;;;;;5056139;28;20425;-86
2021/09/22 01:10:57;;;;;;;17.37;12.37;;;17.80;48.60;;;;;;5055606;28;20472;-90
2021/09/22 01:13:24;;;;;;;15.80;12.73;;;16.80;44.00;;;;;;5058201;28;20455;-89
2021/09/22 01:15:51;;;;;;;15.73;11.90;;;16.10;46.70;;;;;;5058133;28;20457;-87
2021/09/22 01:18:20;;;;;;;20.70;11.57;;;15.70;47.80;;;;;;5058719;28;20456;-90
2021/09/22 01:20:52;;;;;;;14.00;10.47;;;16.20;48.30;;;;;;5041556;28;20457;-91
2021/09/22 01:23:21;;;;;;;12.83;9.77;;;16.50;49.50;;;;;;5043018;28;20849;-90
2021/09/22 01:25:50;;;;;;;22.17;14.20;;;16.80;50.40;;;;;;5039641;28;20510;-91
2021/09/22 01:28:19;;;;;;;16.50;11.10;;;16.60;48.10;;;;;;5037045;28;20480;-91
2021/09/22 01:30:46;;;;;;;15.00;11.63;;;16.60;46.10;;;;;;5037033;28;20808;-91
2021/09/22 01:33:15;;;;;;;17.87;11.97;;;16.70;50.40;;;;;;5038924;28;20529;-90
2021/09/22 01:35:46;;;;;;;13.60;10.40;;;16.80;50.10;;;;;;5039494;28;20445;-91
2021/09/22 01:38:15;;;;;;;14.70;10.97;;;17.10;50.20;;;;;;5040572;28;20429;-91
2021/09/22 01:40:57;;;;;;;16.20;11.30;;;17.30;49.20;;;;;;5046697;28;20465;-91
2021/09/22 01:43:24;;;;;;;15.50;11.73;;;17.20;48.20;;;;;;5039364;28;20836;-90
2021/09/22 01:45:51;;;;;;;11.60;9.70;;;17.00;46.10;;;;;;5038993;28;20441;-90
2021/09/22 01:48:18;;;;;;;13.80;10.60;;;16.80;48.80;;;;;;5038313;28;20484;-91
2021/09/22 01:50:46;;;;;;;12.60;9.90;;;16.90;49.20;;;;;;5038217;28;20530;-91
2021/09/22 01:53:13;;;;;;;12.97;9.73;;;17.20;50.10;;;;;;5036680;28;20942;-90
2021/09/22 01:55:40;;;;;;;21.90;12.17;;;17.40;49.50;;;;;;5038024;28;20452;-90
2021/09/22 01:58:09;;;;;;;14.73;10.13;;;17.50;47.60;;;;;;5039721;28;20488;-90
2021/09/22 02:00:36;;;;;;;16.17;10.50;;;17.60;48.70;;;;;;5043839;28;20473;-90
2021/09/22 02:03:03;;;;;;;12.40;9.67;;;17.50;48.10;;;;;;5041545;28;20465;-90
2021/09/22 02:05:30;;;;;;;13.70;10.60;;;17.50;49.40;;;;;;5041766;28;20432;-90
2021/09/22 02:07:57;;;;;;;21.00;10.30;;;17.50;48.90;;;;;;5041285;28;20526;-91
2021/09/22 02:10:25;;;;;;;11.67;9.10;;;17.60;48.60;;;;;;5045340;28;20476;-90
2021/09/22 02:12:52;;;;;;;13.07;10.50;;;17.60;49.50;;;;;;5051387;28;20429;-91
2021/09/22 02:15:20;;;;;;;13.27;10.07;;;17.60;47.80;;;;;;5054339;28;20445;-90
2021/09/22 02:17:47;;;;;;;12.27;9.77;;;17.50;47.00;;;;;;5040781;28;20527;-91
2021/09/22 02:20:15;;;;;;;13.73;11.93;;;17.00;48.80;;;;;;5038837;28;20460;-92
2021/09/22 02:22:42;;;;;;;18.60;12.07;;;16.70;44.90;;;;;;5058859;28;20959;-90
2021/09/22 02:25:11;;;;;;;19.43;12.30;;;16.20;44.20;;;;;;5059998;28;20446;-92
2021/09/22 02:27:39;;;;;;;13.60;10.03;;;15.70;47.80;;;;;;5056786;28;20594;-91
2021/09/22 02:30:08;;;;;;;10.67;8.97;;;16.10;50.80;;;;;;5055170;28;20497;-92
2021/09/22 02:32:37;;;;;;;18.80;13.70;;;16.70;51.40;;;;;;5056224;28;20451;-91
2021/09/22 02:35:05;;;;;;;17.67;12.10;;;16.80;48.00;;;;;;5054997;28;20532;-92
2021/09/22 02:37:32;;;;;;;15.77;11.90;;;16.40;46.70;;;;;;5055720;28;20453;-92
2021/09/22 02:39:59;;;;;;;14.70;10.33;;;16.10;48.80;;;;;;5054779;28;20451;-91
2021/09/22 02:42:26;;;;;;;28.53;12.07;;;16.30;50.60;;;;;;5055642;28;20925;-92
2021/09/22 02:44:53;;;;;;;21.00;10.57;;;16.30;48.60;;;;;;5055135;28;20444;-92
2021/09/22 02:47:20;;;;;;;15.57;11.53;;;16.30;48.60;;;;;;5055589;28;20508;-91
2021/09/22 02:49:49;;;;;;;14.30;10.93;;;16.30;49.20;;;;;;5055017;28;20496;-91
2021/09/22 02:52:16;;;;;;;22.10;13.30;;;16.10;50.00;;;;;;5055445;28;20538;-92
2021/09/22 02:54:43;;;;;;;20.53;12.50;;;15.60;46.90;;;;;;5055380;28;20439;-91
2021/09/22 02:57:10;;;;;;;15.33;12.07;;;15.40;49.60;;;;;;5074638;28;20424;-87
2021/09/22 02:59:37;;;;;;;18.27;13.00;;;15.10;49.90;;;;;;5077654;28;20553;-86
2021/09/22 03:02:04;;;;;;;20.00;13.60;;;14.70;51.40;;;;;;5075988;28;20445;-86
2021/09/22 03:04:31;;;;;;;18.63;12.97;;;14.50;50.40;;;;;;5074548;28;20486;-92
2021/09/22 03:07:00;;;;;;;18.57;12.40;;;14.40;50.40;;;;;;5060270;28;20582;-92
2021/09/22 03:09:27;;;;;;;18.17;13.17;;;14.20;52.70;;;;;;5055932;28;20464;-91
2021/09/22 03:11:54;;;;;;;15.93;11.70;;;14.60;52.00;;;;;;5056411;28;20448;-91
2021/09/22 03:14:21;;;;;;;15.17;10.80;;;15.10;52.20;;;;;;5056479;28;20525;-92
2021/09/22 03:16:48;;;;;;;15.73;11.77;;;15.40;49.40;;;;;;5055646;28;20510;-91
2021/09/22 03:19:15;;;;;;;19.93;11.40;;;15.60;51.50;;;;;;5056316;28;20515;-92
2021/09/22 03:21:42;;;;;;;16.77;11.80;;;16.10;51.60;;;;;;5055633;28;20425;-92
2021/09/22 03:24:11;;;;;;;16.30;12.77;;;16.30;51.00;;;;;;5054072;28;20452;-92
2021/09/22 03:26:38;;;;;;;12.47;10.20;;;16.50;51.20;;;;;;5054939;28;20989;-92
2021/09/22 03:29:05;;;;;;;15.33;9.80;;;16.70;51.60;;;;;;5054930;28;20444;-92
2021/09/22 03:31:32;;;;;;;12.27;8.67;;;17.00;51.00;;;;;;5055395;28;20508;-91
2021/09/22 03:33:58;;;;;;;14.83;9.23;;;17.00;51.40;;;;;;5068178;28;20451;-92
2021/09/22 03:36:25;;;;;;;15.43;11.50;;;17.20;51.50;;;;;;5073408;28;20449;-91
2021/09/22 03:38:52;;;;;;;12.27;9.00;;;16.80;41.60;;;;;;5068376;28;20860;-92
2021/09/22 03:41:21;;;;;;;14.63;10.60;;;16.20;50.10;;;;;;5058196;28;20499;-92
2021/09/22 03:43:48;;;;;;;13.07;9.10;;;16.40;50.90;;;;;;5056939;28;20436;-92
2021/09/22 03:46:15;;;;;;;36.27;10.87;;;16.80;51.60;;;;;;5054749;28;20455;-91
2021/09/22 03:48:42;;;;;;;17.10;11.00;;;17.00;50.20;;;;;;5061415;28;20509;-91
2021/09/22 03:51:09;;;;;;;12.13;9.23;;;16.90;46.60;;;;;;5074700;28;20461;-91
2021/09/22 03:53:36;;;;;;;15.23;9.80;;;16.80;50.20;;;;;;5075378;28;20423;-90
2021/09/22 03:56:03;;;;;;;11.43;9.37;;;17.00;50.90;;;;;;5076004;28;20432;-91
2021/09/22 03:58:31;;;;;;;12.73;8.87;;;17.10;50.90;;;;;;5075177;28;20494;-90
2021/09/22 04:00:59;;;;;;;13.23;10.00;;;17.10;49.00;;;;;;5071117;28;20565;-91
2021/09/22 04:03:25;;;;;;;11.40;9.03;;;17.10;49.70;;;;;;5059337;28;20442;-91
2021/09/22 04:05:53;;;;;;;13.70;9.10;;;17.20;48.90;;;;;;5057627;28;20529;-92
2021/09/22 04:08:20;;;;;;;15.10;10.20;;;17.40;50.30;;;;;;5073777;28;20483;-91
2021/09/22 04:10:46;;;;;;;11.30;8.50;;;17.20;49.10;;;;;;5075427;28;20455;-91
2021/09/22 04:13:13;;;;;;;12.53;9.57;;;17.30;49.60;;;;;;5076090;28;20432;-91
2021/09/22 04:15:42;;;;;;;12.63;9.73;;;17.30;50.10;;;;;;5070649;28;20459;-90
2021/09/22 04:18:09;;;;;;;14.10;9.17;;;17.40;50.70;;;;;;5058175;28;20448;-91
2021/09/22 04:20:36;;;;;;;12.60;8.97;;;17.60;50.10;;;;;;5056313;28;20472;-91
2021/09/22 04:23:03;;;;;;;11.73;8.90;;;17.60;49.70;;;;;;5057100;28;20440;-92
2021/09/22 04:25:30;;;;;;;14.63;8.87;;;17.90;50.00;;;;;;5057773;28;20484;-91
2021/09/22 04:27:57;;;;;;;15.60;9.47;;;17.70;49.60;;;;;;5056534;28;20511;-91
2021/09/22 04:30:24;;;;;;;14.13;9.97;;;17.70;49.10;;;;;;5056440;28;20471;-91
2021/09/22 04:32:53;;;;;;;12.93;9.90;;;17.50;48.00;;;;;;5054952;28;20517;-91
2021/09/22 04:35:20;;;;;;;12.13;9.80;;;17.30;48.50;;;;;;5058589;28;20509;-91
2021/09/22 04:37:47;;;;;;;11.20;8.97;;;17.10;47.50;;;;;;5058838;28;20448;-91
2021/09/22 04:40:16;;;;;;;18.47;9.57;;;16.80;47.30;;;;;;5060004;28;20514;-91
2021/09/22 04:42:42;;;;;;;13.37;10.37;;;16.90;49.90;;;;;;5058209;28;20911;-90
2021/09/22 04:45:10;;;;;;;11.13;8.60;;;15.60;41.10;;;;;;5059457;28;20443;-90
2021/09/22 04:47:38;;;;;;;14.00;10.40;;;14.30;43.90;;;;;;5059532;28;20969;-90
2021/09/22 04:50:09;;;;;;;20.97;12.40;;;13.40;46.10;;;;;;5058984;28;20545;-90
2021/09/22 04:52:36;;;;;;;16.27;10.97;;;12.50;47.20;;;;;;5060778;28;20478;-90
2021/09/22 04:55:04;;;;;;;15.30;11.37;;;12.10;49.30;;;;;;5061149;28;20433;-91
2021/09/22 04:57:31;;;;;;;16.37;12.13;;;11.90;49.60;;;;;;5059337;28;20565;-90
2021/09/22 04:59:58;;;;;;;19.00;13.10;;;12.00;50.30;;;;;;5057288;28;20468;-90
2021/09/22 05:02:25;;;;;;;15.73;11.70;;;11.70;51.10;;;;;;5058023;28;20557;-90
2021/09/22 05:04:53;;;;;;;18.60;12.83;;;11.40;50.80;;;;;;5057458;28;20769;-90
2021/09/22 05:07:21;;;;;;;17.93;12.30;;;11.30;51.00;;;;;;5057109;28;20458;-90
2021/09/22 05:09:48;;;;;;;16.50;11.83;;;11.30;51.30;;;;;;5057330;28;20548;-90
2021/09/22 05:12:15;;;;;;;15.10;11.20;;;11.20;51.50;;;;;;5058211;28;20506;-90
2021/09/22 05:14:42;;;;;;;16.03;11.60;;;11.80;55.30;;;;;;5057579;28;20467;-90
2021/09/22 05:17:10;;;;;;;17.20;12.53;;;12.70;58.50;;;;;;5065237;28;20442;-91
2021/09/22 05:19:37;;;;;;;15.17;11.10;;;13.30;55.30;;;;;;5057229;28;20558;-90
2021/09/22 05:22:05;;;;;;;16.90;12.90;;;13.90;53.10;;;;;;5057105;28;20470;-91
2021/09/22 05:24:33;;;;;;;15.50;11.90;;;14.40;52.90;;;;;;5057551;28;20493;-91
2021/09/22 05:27:00;;;;;;;19.30;11.23;;;14.50;52.10;;;;;;5057219;28;20483;-91
2021/09/22 05:29:27;;;;;;;16.07;11.73;;;14.60;51.50;;;;;;5056920;28;20550;-90
2021/09/22 05:31:54;;;;;;;14.47;10.73;;;14.50;50.40;;;;;;5057230;28;20598;-90
2021/09/22 05:34:21;;;;;;;14.20;10.27;;;14.30;52.40;;;;;;5057062;28;20479;-90
2021/09/22 05:36:48;;;;;;;14.77;11.57;;;14.50;53.70;;;;;;5057305;28;20491;-89
2021/09/22 05:39:15;;;;;;;14.13;10.40;;;14.50;51.20;;;;;;5057843;28;20505;-90
2021/09/22 05:41:44;;;;;;;14.70;9.30;;;14.70;51.80;;;;;;5059909;28;20451;-90
2021/09/22 05:44:11;;;;;;;16.20;9.23;;;14.80;47.80;;;;;;5059893;28;20433;-89
2021/09/22 05:46:38;;;;;;;13.60;10.27;;;14.50;48.80;;;;;;5057810;28;20495;-89
2021/09/22 05:49:05;;;;;;;12.37;9.70;;;14.40;49.40;;;;;;5056815;28;20479;-89
2021/09/22 05:51:32;;;;;;;14.70;10.80;;;14.20;46.40;;;;;;5055974;28;20444;-90
2021/09/22 05:53:59;;;;;;;12.63;9.07;;;14.20;47.30;;;;;;5056404;28;20490;-89
2021/09/22 05:56:27;;;;;;;12.37;9.37;;;14.70;52.70;;;;;;5059031;28;20452;-89
2021/09/22 05:58:55;;;;;;;11.70;8.90;;;15.10;48.00;;;;;;5056063;28;20436;-89
2021/09/22 06:01:22;;;;;;;13.53;8.10;;;15.30;43.90;;;;;;5058092;28;20856;-90
2021/09/22 06:03:49;;;;;;;12.20;9.70;;;15.90;49.80;;;;;;5056119;28;20454;-90
2021/09/22 06:06:16;;;;;;;10.17;8.80;;;16.50;46.20;;;;;;5056272;28;20930;-90
2021/09/22 06:08:43;;;;;;;11.60;9.17;;;16.30;42.90;;;;;;5056641;28;20488;-90
2021/09/22 06:11:10;;;;;;;10.23;8.63;;;16.40;45.00;;;;;;5058372;28;20456;-90
2021/09/22 06:13:37;;;;;;;10.50;8.10;;;16.70;41.60;;;;;;5056791;28;20785;-90
2021/09/22 06:16:06;;;;;;;10.33;8.30;;;16.50;41.30;;;;;;5056163;28;20926;-91
2021/09/22 06:18:35;;;;;;;10.03;7.80;;;16.30;43.50;;;;;;5058043;28;20464;-90
2021/09/22 06:21:04;;;;;;;8.23;7.00;;;16.50;42.60;;;;;;5058670;28;20460;-90
2021/09/22 06:23:31;;;;;;;8.50;7.03;;;17.20;42.30;;;;;;5057755;28;20502;-90
2021/09/22 06:25:58;;;;;;;20.33;9.03;;;17.50;41.40;;;;;;5056790;28;20573;-90
2021/09/22 06:28:25;;;;;;;8.97;7.40;;;18.40;40.80;;;;;;5055009;28;20476;-88
2021/09/22 06:30:52;;;;;;;8.73;7.10;;;18.80;37.80;;;;;;5056250;28;20476;-89
2021/09/22 06:33:20;;;;;;;13.70;7.03;;;18.70;36.70;;;;;;5061403;28;20428;-89
2021/09/22 06:35:47;;;;;;;8.67;7.20;;;18.60;37.50;;;;;;5056333;28;20502;-89
2021/09/22 06:38:14;;;;;;;10.37;7.30;;;18.80;37.30;;;;;;5057540;28;20558;-89
2021/09/22 06:40:41;;;;;;;8.50;6.80;;;18.60;37.50;;;;;;5063804;28;20460;-89
2021/09/22 06:43:08;;;;;;;8.47;6.87;;;18.50;37.60;;;;;;5061054;28;20429;-89
2021/09/22 06:45:36;;;;;;;7.27;6.60;;;18.00;38.90;;;;;;5057970;28;20452;-89
2021/09/22 06:48:02;;;;;;;8.63;6.63;;;18.40;38.10;;;;;;5059945;28;20475;-89
2021/09/22 06:50:31;;;;;;;9.60;7.47;;;18.60;37.50;;;;;;5058757;28;20464;-89
2021/09/22 06:52:58;;;;;;;8.93;6.97;;;18.70;38.30;;;;;;5059930;28;20437;-89
2021/09/22 06:55:26;;;;;;;10.50;7.00;;;19.60;37.00;;;;;;5056495;28;20500;-90
2021/09/22 06:57:53;;;;;;;10.30;7.27;;;20.00;35.90;;;;;;5057698;28;20452;-89
2021/09/22 07:00:20;;;;;;;11.23;7.60;;;19.50;36.80;;;;;;5063996;28;20464;-88
2021/09/22 07:02:47;;;;;;;9.17;7.67;;;19.00;35.30;;;;;;5059220;28;20448;-89
2021/09/22 07:05:15;;;;;;;6.43;5.53;;;18.60;38.80;;;;;;5058461;28;20444;-89
2021/09/22 07:07:46;;;;;;;10.73;7.27;;;18.90;42.10;;;;;;5055383;28;20448;-89
2021/09/22 07:10:14;;;;;;;16.13;8.50;;;19.60;37.50;;;;;;5056628;28;20490;-89
2021/09/22 07:12:41;;;;;;;11.30;7.90;;;19.30;37.10;;;;;;5056355;28;20965;-88
2021/09/22 07:15:09;;;;;;;11.07;8.47;;;19.40;37.30;;;;;;5056633;28;20449;-88
2021/09/22 07:17:36;;;;;;;16.00;8.30;;;19.40;37.30;;;;;;5056089;28;20467;-89
2021/09/22 07:20:04;;;;;;;14.23;10.60;;;19.00;37.00;;;;;;5055760;28;20468;-89
2021/09/22 07:22:31;;;;;;;13.27;9.47;;;18.70;37.80;;;;;;5055963;28;20448;-89
2021/09/22 07:24:59;;;;;;;14.07;10.50;;;18.70;36.90;;;;;;5056095;28;20521;-87
2021/09/22 07:27:26;;;;;;;14.60;10.13;;;19.40;36.70;;;;;;5053383;28;20494;-87
2021/09/22 07:29:54;;;;;;;13.60;9.47;;;19.10;36.40;;;;;;5053783;28;20566;-88
2021/09/22 07:32:22;;;;;;;15.80;10.20;;;19.20;38.20;;;;;;5055093;28;20477;-88
2021/09/22 07:34:49;;;;;;;8.67;7.33;;;20.00;34.20;;;;;;5055660;28;20529;-89
2021/09/22 07:37:18;;;;;;;11.50;8.73;;;20.30;36.80;;;;;;5060368;28;20483;-89
2021/09/22 07:39:45;;;;;;;10.60;8.50;;;20.80;34.00;;;;;;5058378;28;20458;-89
2021/09/22 07:42:14;;;;;;;15.27;10.93;;;20.60;33.50;;;;;;5056497;28;20482;-89
2021/09/22 07:44:42;;;;;;;15.03;8.80;;;20.90;34.10;;;;;;5055891;28;20452;-89
2021/09/22 07:47:09;;;;;;;10.60;8.60;;;20.50;35.30;;;;;;5057375;28;20452;-89
2021/09/22 07:49:36;;;;;;;13.87;9.50;;;21.20;34.00;;;;;;5059319;28;21075;-89
2021/09/22 07:52:03;;;;;;;21.23;8.53;;;21.40;33.30;;;;;;5062265;28;20546;-87
2021/09/22 07:54:30;;;;;;;13.90;9.80;;;20.80;34.10;;;;;;5068087;28;20474;-87
2021/09/22 07:56:57;;;;;;;18.23;9.67;;;21.20;34.00;;;;;;5066003;28;20452;-87
2021/09/22 07:59:26;;;;;;;13.37;9.93;;;21.30;34.50;;;;;;5058356;28;20525;-87
2021/09/22 08:01:53;;;;;;;9.00;7.17;;;22.10;34.10;;;;;;5060115;28;20550;-87
2021/09/22 08:04:20;;;;;;;15.90;10.00;;;21.60;35.10;;;;;;5058546;28;20861;-86
2021/09/22 08:06:47;;;;;;;12.30;9.90;;;21.30;33.30;;;;;;5056539;28;20437;-87
2021/09/22 08:09:14;;;;;;;15.30;11.90;;;21.80;33.40;;;;;;5057900;28;20965;-86
2021/09/22 08:11:41;;;;;;;22.83;11.10;;;21.00;33.20;;;;;;5062183;28;20444;-87
2021/09/22 08:14:08;;;;;;;18.40;11.23;;;21.20;33.70;;;;;;5060591;28;20440;-87
2021/09/22 08:16:36;;;;;;;11.80;8.60;;;20.60;33.10;;;;;;5061206;28;20443;-87
2021/09/22 08:19:03;;;;;;;14.97;10.73;;;20.40;36.10;;;;;;5059077;28;20498;-87
2021/09/22 08:21:30;;;;;;;17.90;10.33;;;21.10;33.60;;;;;;5058271;28;20432;-86
2021/09/22 08:23:57;;;;;;;25.00;11.27;;;21.30;33.50;;;;;;5057453;28;20463;-87
2021/09/22 08:26:24;;;;;;;21.23;11.27;;;21.30;32.90;;;;;;5058059;28;20486;-86
2021/09/22 08:28:51;;;;;;;31.20;11.33;;;21.40;33.70;;;;;;5057684;28;20614;-86
2021/09/22 08:31:18;;;;;;;13.13;10.50;;;21.60;33.50;;;;;;5058469;28;20472;-86
2021/09/22 08:33:47;;;;;;;14.07;10.60;;;22.20;32.20;;;;;;5058371;28;20456;-86
2021/09/22 08:36:14;;;;;;;19.90;11.10;;;22.10;34.40;;;;;;5057460;28;20451;-87
2021/09/22 08:38:41;;;;;;;15.47;11.67;;;21.80;31.90;;;;;;5057497;28;20569;-86
2021/09/22 08:41:08;;;;;;;13.87;10.93;;;22.40;32.00;;;;;;5057516;28;20472;-86
2021/09/22 08:43:36;;;;;;;18.27;11.70;;;22.40;32.00;;;;;;5058355;28;20494;-87
2021/09/22 08:46:03;;;;;;;24.17;10.40;;;22.10;31.70;;;;;;5057166;28;20501;-87
2021/09/22 08:48:30;;;;;;;13.40;10.00;;;21.80;33.10;;;;;;5057108;28;20444;-86
2021/09/22 08:50:59;;;;;;;15.00;10.37;;;21.40;33.50;;;;;;5057425;28;20480;-87
2021/09/22 08:53:26;;;;;;;15.93;10.17;;;20.90;36.30;;;;;;5057927;28;20444;-87
2021/09/22 08:55:52;;;;;;;20.20;11.53;;;20.80;35.70;;;;;;5056874;28;20497;-87
2021/09/22 08:58:20;;;;;;;22.07;13.93;;;20.60;35.80;;;;;;5056903;28;20440;-87
2021/09/22 09:00:47;;;;;;;14.77;10.83;;;20.70;35.40;;;;;;5058221;28;20522;-86
2021/09/22 09:03:31;;;;;;;16.27;10.57;;;20.50;35.00;;;;;;5057444;28;20972;-86
2021/09/22 09:06:18;;;;;;;16.20;11.60;;;20.00;36.20;;;;;;5056720;28;20863;-86
2021/09/22 09:08:45;;;;;;;16.97;11.80;;;20.20;35.50;;;;;;5056418;28;20813;-86
2021/09/22 09:11:13;;;;;;;16.93;10.90;;;20.20;36.20;;;;;;5056021;28;20510;-86
2021/09/22 09:13:47;;;;;;;12.90;9.70;;;20.20;35.70;;;;;;5055447;28;20440;-87
2021/09/22 09:16:16;;;;;;;14.83;10.80;;;20.30;37.20;;;;;;5057170;28;20517;-87
2021/09/22 09:18:47;;;;;;;14.30;11.23;;;20.60;34.50;;;;;;5056863;28;20782;-86
2021/09/22 09:21:14;;;;;;;17.40;11.30;;;20.30;34.70;;;;;;5055215;28;21028;-86
2021/09/22 09:23:51;;;;;;;12.73;10.17;;;20.70;34.10;;;;;;5057223;28;20452;-87
2021/09/22 09:26:22;;;;;;;10.60;8.03;;;20.20;35.00;;;;;;5056615;28;20459;-86
2021/09/22 09:28:52;;;;;;;17.00;10.77;;;19.90;38.80;;;;;;5055640;28;20567;-86
2021/09/22 09:31:21;;;;;;;15.07;10.43;;;19.80;34.50;;;;;;5057434;28;20882;-86
2021/09/22 09:33:50;;;;;;;11.50;9.00;;;19.60;36.50;;;;;;5057502;28;20443;-86
2021/09/22 09:36:23;;;;;;;28.27;11.90;;;19.40;35.60;;;;;;5056446;28;20870;-86
2021/09/22 09:38:57;;;;;;;16.40;10.97;;;19.60;36.20;;;;;;5058091;28;20814;-86
2021/09/22 09:41:26;;;;;;;10.17;7.47;;;20.10;35.50;;;;;;5056950;28;20482;-86
2021/09/22 09:43:53;;;;;;;16.27;10.57;;;20.80;38.00;;;;;;5055284;28;20905;-86
2021/09/22 09:46:23;;;;;;;14.10;10.10;;;21.00;34.20;;;;;;5055882;28;20436;-86
2021/09/22 09:49:00;;;;;;;18.60;10.27;;;20.80;33.90;;;;;;5058003;28;20456;-86
2021/09/22 09:51:38;;;;;;;17.83;9.53;;;21.00;34.00;;;;;;5057288;28;20598;-86
2021/09/22 09:54:22;;;;;;;18.90;10.57;;;21.40;33.60;;;;;;5057181;28;20550;-86
2021/09/22 09:56:51;;;;;;;9.53;7.40;;;21.00;33.30;;;;;;5057309;28;20598;-86
2021/09/22 09:59:20;;;;;;;11.93;8.33;;;20.80;35.70;;;;;;5055761;28;20447;-87
2021/09/22 10:01:49;;;;;;;11.40;9.00;;;21.00;32.10;;;;;;5055025;28;20441;-86
2021/09/22 10:04:20;;;;;;;10.13;7.73;;;20.80;32.30;;;;;;5054618;28;20424;-86
2021/09/22 10:06:47;;;;;;;16.10;8.83;;;20.80;33.50;;;;;;5056016;28;20967;-86
2021/09/22 10:09:15;;;;;;;12.83;8.20;;;20.70;33.20;;;;;;5055770;28;20488;-86
2021/09/22 10:11:45;;;;;;;17.67;8.10;;;21.00;33.00;;;;;;5054523;28;20518;-87
2021/09/22 10:14:14;;;;;;;12.17;8.10;;;20.90;33.10;;;;;;5053550;28;20447;-86
2021/09/22 10:16:42;;;;;;;11.57;7.87;;;20.80;33.00;;;;;;5054237;28;20444;-86
2021/09/22 10:19:11;;;;;;;35.90;7.97;;;20.70;33.30;;;;;;5054690;28;20432;-86
2021/09/22 10:21:38;;;;;;;10.77;7.83;;;21.00;31.90;;;;;;5054495;28;20475;-86
2021/09/22 10:24:09;;;;;;;14.43;7.50;;;21.00;31.60;;;;;;5054556;28;20527;-86
2021/09/22 10:26:38;;;;;;;9.23;6.53;;;21.00;32.50;;;;;;5054902;28;20436;-86
2021/09/22 10:29:21;;;;;;;11.50;7.70;;;21.20;34.50;;;;;;5056028;28;20976;-86
2021/09/22 10:31:48;;;;;;;13.67;7.80;;;21.00;32.50;;;;;;5056388;28;20506;-86
2021/09/22 10:34:33;;;;;;;13.90;8.10;;;20.90;33.10;;;;;;5055087;28;20910;-86
2021/09/22 10:37:01;;;;;;;14.13;8.13;;;20.40;33.30;;;;;;5056394;28;20436;-87
2021/09/22 10:39:42;;;;;;;10.83;7.70;;;20.70;32.30;;;;;;5054645;28;20452;-86
2021/09/22 10:42:29;;;;;;;11.70;7.20;;;20.00;33.40;;;;;;5054219;28;20501;-86
2021/09/22 10:45:19;;;;;;;12.23;8.23;;;19.70;33.80;;;;;;5060962;28;20441;-86
2021/09/22 10:47:46;;;;;;;8.30;7.03;;;20.10;33.80;;;;;;5058857;28;20413;-86
2021/09/22 10:50:30;;;;;;;9.37;7.90;;;19.90;32.90;;;;;;5060529;28;20849;-87
2021/09/22 10:52:57;;;;;;;9.87;6.90;;;19.80;33.10;;;;;;5056388;28;20814;-87
2021/09/22 10:55:24;;;;;;;9.20;6.63;;;19.50;34.20;;;;;;5061324;28;20460;-86
2021/09/22 10:57:51;;;;;;;16.57;7.60;;;19.60;33.50;;;;;;5061823;28;20511;-86
2021/09/22 11:00:21;;;;;;;9.13;6.40;;;20.00;33.30;;;;;;5061912;28;20460;-86
2021/09/22 11:02:49;;;;;;;11.17;6.60;;;19.90;34.00;;;;;;5057649;28;20452;-86
2021/09/22 11:05:35;;;;;;;10.20;6.87;;;19.70;34.20;;;;;;5055293;28;20440;-86
2021/09/22 11:08:03;;;;;;;13.53;7.30;;;20.30;33.50;;;;;;5055184;28;20886;-87
2021/09/22 11:10:46;;;;;;;16.63;6.57;;;19.90;33.90;;;;;;5055210;28;20483;-86
2021/09/22 11:13:32;;;;;;;14.63;7.60;;;20.00;34.00;;;;;;5054980;28;20792;-86
2021/09/22 11:16:13;;;;;;;19.80;6.70;;;20.50;33.70;;;;;;5053573;28;20440;-87
2021/09/22 11:18:41;;;;;;;10.10;6.83;;;20.80;33.40;;;;;;5053450;28;20444;-87
2021/09/22 11:21:08;;;;;;;5.97;5.33;;;21.30;32.20;;;;;;5052708;28;20459;-87
2021/09/22 11:23:36;;;;;;;7.40;6.00;;;21.00;32.40;;;;;;5052730;28;20494;-87
2021/09/22 11:26:07;;;;;;;8.40;6.70;;;20.50;34.30;;;;;;5052978;28;20964;-86
2021/09/22 11:28:35;;;;;;;9.00;6.57;;;20.30;33.40;;;;;;5053340;28;20452;-87
2021/09/22 11:31:02;;;;;;;8.40;6.20;;;19.70;35.30;;;;;;5052767;28;20484;-86
2021/09/22 11:33:30;;;;;;;11.20;7.43;;;20.00;36.00;;;;;;5053403;28;20456;-86
2021/09/22 11:36:06;;;;;;;9.93;7.07;;;19.90;37.10;;;;;;5052731;28;20459;-87
2021/09/22 11:38:35;;;;;;;11.70;7.20;;;20.70;34.60;;;;;;5053057;28;20416;-87
2021/09/22 11:41:02;;;;;;;15.63;7.70;;;20.40;34.40;;;;;;5061601;28;20472;-86
2021/09/22 11:43:29;;;;;;;7.90;6.47;;;19.90;34.30;;;;;;5071198;28;20440;-87
2021/09/22 11:46:00;;;;;;;13.37;7.40;;;20.50;34.50;;;;;;5075330;28;20451;-87
2021/09/22 11:48:31;;;;;;;9.70;6.03;;;20.80;33.40;;;;;;5076998;28;20475;-86
2021/09/22 11:51:00;;;;;;;9.37;6.50;;;20.40;34.10;;;;;;5075791;28;20486;-87
2021/09/22 11:53:30;;;;;;;11.20;6.20;;;20.80;34.90;;;;;;5076487;28;20456;-86
2021/09/22 11:55:58;;;;;;;11.63;6.47;;;21.00;33.30;;;;;;5069969;28;20506;-87
2021/09/22 11:58:27;;;;;;;8.47;5.80;;;21.00;33.20;;;;;;5059941;28;20460;-86
2021/09/22 12:00:55;;;;;;;9.37;5.53;;;20.50;34.70;;;;;;5067920;28;20460;-87
2021/09/22 12:03:24;;;;;;;10.23;5.73;;;20.60;34.50;;;;;;5075618;28;20462;-87
2021/09/22 12:06:08;;;;;;;8.80;6.00;;;21.30;34.20;;;;;;5076631;28;20494;-87
2021/09/22 12:08:38;;;;;;;9.70;5.70;;;22.10;33.00;;;;;;5078798;28;20463;-88
2021/09/22 12:11:07;;;;;;;7.23;5.83;;;22.80;32.30;;;;;;5074956;28;20467;-87
2021/09/22 12:13:40;;;;;;;7.60;5.40;;;22.40;30.80;;;;;;5063176;28;20498;-86
2021/09/22 12:16:08;;;;;;;9.97;5.10;;;21.70;32.80;;;;;;5050240;28;20409;-87
2021/09/22 12:18:36;;;;;;;10.13;5.43;;;21.70;33.10;;;;;;5052955;28;20532;-87
2021/09/22 12:21:04;;;;;;;8.00;5.57;;;21.90;31.50;;;;;;5051408;28;20453;-86
2021/09/22 12:23:33;;;;;;;16.20;5.70;;;21.00;33.30;;;;;;5043897;28;20499;-87
2021/09/22 12:26:09;;;;;;;5.97;4.67;;;21.10;33.40;;;;;;5040240;28;20499;-87
2021/09/22 12:28:36;;;;;;;11.13;4.70;;;21.60;32.00;;;;;;5039954;28;20838;-87
2021/09/22 12:31:16;;;;;;;6.20;4.30;;;20.70;32.70;;;;;;5038763;28;20534;-86
2021/09/22 12:33:43;;;;;;;4.77;4.10;;;20.80;34.90;;;;;;5039373;28;20499;-87
2021/09/22 12:36:14;;;;;;;8.53;4.43;;;21.80;33.00;;;;;;5039097;28;20463;-87
2021/09/22 12:38:49;;;;;;;6.97;4.37;;;21.80;31.40;;;;;;5039162;28;20449;-86
2021/09/22 12:41:17;;;;;;;5.80;3.90;;;21.00;33.10;;;;;;5047474;28;20524;-86